Post, TX

3:52 AM CST en Diciembre 22, 2014 (GMT -0600)
WT_Meso Post 1S | Change Station
CLOSE
Current Station
Estación meteorológica personal
Location: Post, TX
Altura: 2598 ft
Estaciones meteorológicas cercanas

Alt 2598 ft 33.20 °N, 101.37 °W | Updated 57 minutes ago

Parcialmente nublado
Parcialmente nublado
56 ° F
Sensación térmica 56 ° F
N
17
Viento Variable Viento desde Oeste
Gusts 23.0 mph

Hoy
Alta -- | Baja -- ° F
--% Posibilidad de precipitaciones
Ayer
Alta -- | Baja -- ° F
Precip. -- pul
7:45 AM 5:42 PM
Luna nueva, 0% visible
Presión 29.54 pul
Visibilidad 10.0 Millas
Nubes Despejado
Punto de rocío 31 ° F
Humedad 39%
Precipitaciones -999.00 pul
Espesor de la nieve No disponible.
UV 0 de una escala de 12
Polen 9.00 de una escala de 12
Calidad del aire No disponible.
Flu Activity No disponible.
METAR KLBB 220853Z 29011KT 10SM CLR 10/M01 A2962 RMK AO2 SLP002 T01001006 53004

More Conditions Fewer Conditions

Presión 29.54 pul
Visibilidad 10.0 Millas
Nubes Despejado
Punto de rocío 31 ° F
Humedad 39%
Precipitaciones -999.00 pul
Espesor de la nieve No disponible.
UV 0 de una escala de 12
Polen 9.00 de una escala de 12
Calidad del aire No disponible.
Flu Activity No disponible.
METAR KLBB 220853Z 29011KT 10SM CLR 10/M01 A2962 RMK AO2 SLP002 T01001006 53004

More Conditions Fewer Conditions

10-Day Weather Forecast

Almanac

Astronomía

Dec. 22, 2014 Salida Puesta
Hora real
Crepúsculo civil
Crepúsculo náutico
Crepúsculo astronómico
Luna
Horas de luz
Horas de luz
Tomorrow will be .
, % of the Moon is Illuminated

Extremos de hoy

Máximos del estado Bajos del estado

Community

WunderPhotos

Upload Photos

1,779,583 ¡fotos cargadas!

WunderBlogs® & News

Nearby

Calidad del aire

  Calidad del aire Índice AQ Contaminante
Not available.

Grosos de nieve

Estación Profundido Altura

Actividad de terremotos

Ciudad Distance Mag. Tiempo y dato
Magnitud mínima muestra es 2,5.

Temperaturas de aguas costeras

Lugar Temperatura

Estaciones meteorológicas cercanas